Time;durP1;ratioP1;P1;durP2;ratioP2;P2;SDS_P1;SDS_P2;PMS_P1;PMS_P2;Temp;Humidity;BMP_temperature;BMP_pressure;BME280_temperature;BME280_humidity;BME280_pressure;Samples;Min_cycle;Max_cycle;Signal;HPM_P1;HPM_P2
2022/09/20 00:01:12;;;;;;;13.08;5.08;;;;;;;11.15;75.69;99301.05;1776314;80;21065;-70
2022/09/20 00:03:43;;;;;;;10.80;3.87;;;;;;;11.15;75.69;99307.69;1765780;80;21569;-71
2022/09/20 00:06:13;;;;;;;7.35;4.30;;;;;;;11.24;75.66;99307.90;1783559;80;21201;-70
2022/09/20 00:08:39;;;;;;;11.80;4.42;;;;;;;11.36;75.46;99308.30;1780840;80;21054;-70
2022/09/20 00:11:09;;;;;;;6.92;4.10;;;;;;;11.36;75.49;99308.30;1759062;80;21057;-70
2022/09/20 00:13:37;;;;;;;7.95;4.08;;;;;;;11.35;75.49;99306.63;1771281;79;20994;-71
2022/09/20 00:16:05;;;;;;;11.53;4.90;;;;;;;11.33;75.46;99308.64;1793468;80;21065;-71
2022/09/20 00:18:33;;;;;;;12.25;4.50;;;;;;;11.32;75.63;99298.52;1765854;80;21911;-71
2022/09/20 00:20:59;;;;;;;12.28;4.67;;;;;;;11.32;75.70;99299.00;1790429;79;21011;-72
2022/09/20 00:23:26;;;;;;;10.48;4.28;;;;;;;11.30;75.89;99299.70;1774267;80;21040;-68
2022/09/20 00:25:59;;;;;;;10.05;4.40;;;;;;;11.36;75.80;99301.13;1785038;78;21077;-71
2022/09/20 00:28:26;;;;;;;11.08;4.72;;;;;;;11.48;75.68;99300.16;1766573;80;21011;-69
2022/09/20 00:30:53;;;;;;;11.85;4.72;;;;;;;11.46;75.83;99295.53;1758750;81;21787;-72
2022/09/20 00:33:21;;;;;;;12.28;4.60;;;;;;;11.43;75.84;99299.06;1772829;80;21068;-72
2022/09/20 00:35:48;;;;;;;8.30;4.90;;;;;;;11.39;75.88;99297.27;1771753;80;21498;-70
2022/09/20 00:38:15;;;;;;;12.23;4.75;;;;;;;11.34;76.17;99299.67;1782722;79;21050;-70
2022/09/20 00:40:44;;;;;;;14.93;5.12;;;;;;;11.30;76.10;99305.86;1775827;79;21049;-70
2022/09/20 00:43:16;;;;;;;15.88;4.55;;;;;;;11.26;75.96;99300.59;1776207;80;21136;-70
2022/09/20 00:45:47;;;;;;;11.70;4.28;;;;;;;11.24;75.71;99300.44;1760040;79;21061;-71
2022/09/20 00:48:22;;;;;;;9.38;4.58;;;;;;;11.29;75.47;99298.88;1766755;79;21044;-70
2022/09/20 00:51:03;;;;;;;8.73;4.80;;;;;;;11.41;75.26;99293.92;1787006;80;21545;-70
2022/09/20 00:53:39;;;;;;;10.50;4.70;;;;;;;11.40;75.44;99293.10;1783056;80;21060;-71
2022/09/20 00:56:10;;;;;;;12.35;4.75;;;;;;;11.40;75.31;99286.97;1767154;80;21728;-71
2022/09/20 00:58:40;;;;;;;10.30;4.58;;;;;;;11.39;75.60;99292.77;1768819;79;21009;-69
2022/09/20 01:01:07;;;;;;;10.15;4.90;;;;;;;11.34;75.91;99292.52;1790641;79;21088;-71
2022/09/20 01:03:34;;;;;;;10.93;4.37;;;;;;;11.29;76.13;99292.74;1762288;80;21005;-70
2022/09/20 01:06:03;;;;;;;8.68;4.42;;;;;;;11.24;76.04;99291.13;1790304;80;22239;-70
2022/09/20 01:08:31;;;;;;;8.08;4.65;;;;;;;11.27;76.01;99291.59;1773146;80;21082;-72
2022/09/20 01:10:57;;;;;;;8.08;4.83;;;;;;;11.37;75.94;99286.81;1776094;78;21050;-71
2022/09/20 01:13:24;;;;;;;11.18;4.75;;;;;;;11.35;75.87;99288.83;1748702;79;21044;-73
2022/09/20 01:15:50;;;;;;;8.80;4.50;;;;;;;11.33;75.93;99290.03;1766199;81;21037;-70
2022/09/20 01:18:18;;;;;;;8.68;4.85;;;;;;;11.31;75.88;99292.87;1768725;80;21099;-70
2022/09/20 01:20:44;;;;;;;6.47;4.28;;;;;;;11.30;75.96;99300.55;1755784;80;21173;-71
2022/09/20 01:23:47;;;;;;;13.43;5.37;;;;;;;11.26;76.17;99301.08;1764986;81;21053;-69
2022/09/20 01:26:19;;;;;;;10.08;4.58;;;;;;;11.20;76.52;99299.48;1767094;79;21594;-70
2022/09/20 01:28:47;;;;;;;8.13;4.47;;;;;;;11.29;76.56;99299.39;1768395;80;22040;-69
2022/09/20 01:31:25;;;;;;;9.33;5.22;;;;;;;11.35;76.29;99299.98;1769345;81;21019;-69
2022/09/20 01:34:14;;;;;;;10.03;5.20;;;;;;;11.31;76.61;99297.38;1764407;80;21129;-68
2022/09/20 01:36:53;;;;;;;12.78;5.20;;;;;;;11.25;76.83;99296.78;1767498;80;21046;-70
2022/09/20 01:39:47;;;;;;;9.73;5.65;;;;;;;11.16;77.19;99290.23;1760632;79;20998;-70
2022/09/20 01:42:14;;;;;;;6.22;4.37;;;;;;;11.07;77.69;99299.77;1764479;80;21014;-69
2022/09/20 01:45:10;;;;;;;8.50;4.05;;;;;;;11.05;78.03;99297.80;1736714;81;21097;-67
2022/09/20 01:48:15;;;;;;;9.73;4.12;;;;;;;11.05;78.02;99295.14;1766662;80;21959;-70
2022/09/20 01:51:32;;;;;;;7.40;4.28;;;;;;;10.94;78.45;99293.78;1741551;80;21069;-71
2022/09/20 01:54:21;;;;;;;5.58;3.87;;;;;;;10.82;78.84;99290.73;1766179;79;21006;-71
2022/09/20 01:57:03;;;;;;;8.43;3.92;;;;;;;10.70;79.13;99294.34;1765768;80;21424;-74
2022/09/20 01:59:51;;;;;;;7.05;3.42;;;;;;;10.70;79.12;99292.16;1770515;81;21076;-72
2022/09/20 02:03:11;;;;;;;7.25;4.25;;;;;;;10.74;78.95;99290.79;1756104;81;21299;-70
2022/09/20 02:06:13;;;;;;;5.75;3.77;;;;;;;10.72;78.97;99296.79;1762490;81;21037;-70
2022/09/20 02:09:05;;;;;;;5.90;4.25;;;;;;;10.70;79.21;99293.01;1739786;79;21525;-70
2022/09/20 02:11:49;;;;;;;7.25;4.00;;;;;;;10.69;79.21;99294.00;1767273;81;21011;-71
2022/09/20 02:14:54;;;;;;;7.28;3.58;;;;;;;10.63;79.42;99294.22;1768904;79;21041;-70
2022/09/20 02:17:42;;;;;;;6.35;3.50;;;;;;;10.65;79.56;99290.05;1763056;79;21155;-69
2022/09/20 02:20:17;;;;;;;7.00;3.35;;;;;;;10.75;79.45;99289.80;1736061;81;21054;-70
2022/09/20 02:22:52;;;;;;;6.83;4.15;;;;;;;10.73;79.86;99288.64;1759008;81;21015;-70
2022/09/20 02:25:54;;;;;;;7.65;4.33;;;;;;;10.72;80.21;99292.33;1771877;79;21500;-69
2022/09/20 02:28:49;;;;;;;7.90;4.25;;;;;;;10.72;80.34;99294.98;1748752;81;21272;-70
2022/09/20 02:31:55;;;;;;;7.60;3.47;;;;;;;10.69;80.41;99297.17;1760376;81;22162;-71
2022/09/20 02:34:33;;;;;;;4.72;3.42;;;;;;;10.69;80.37;99291.86;1769651;81;21013;-70
2022/09/20 02:37:24;;;;;;;7.25;3.60;;;;;;;10.64;80.34;99295.03;1763660;81;20985;-70
2022/09/20 02:40:13;;;;;;;4.90;3.40;;;;;;;10.51;80.76;99289.52;1748497;81;21025;-71
2022/09/20 02:43:06;;;;;;;4.83;3.80;;;;;;;10.42;81.16;99290.08;1769549;81;21552;-70
2022/09/20 02:46:07;;;;;;;7.58;3.80;;;;;;;10.33;81.22;99291.95;1756884;81;21148;-70
2022/09/20 02:49:23;;;;;;;4.83;3.37;;;;;;;10.28;81.42;99292.16;1743338;79;21306;-69
2022/09/20 02:51:54;;;;;;;6.87;3.75;;;;;;;10.32;81.50;99297.47;1764063;81;21009;-71
2022/09/20 02:54:29;;;;;;;7.00;3.90;;;;;;;10.36;81.67;99298.25;1772936;78;21049;-71
2022/09/20 02:57:32;;;;;;;4.67;3.62;;;;;;;10.38;81.93;99293.59;1770451;80;21285;-71
2022/09/20 03:00:05;;;;;;;8.28;3.87;;;;;;;10.43;81.95;99291.75;1793352;80;21129;-69
2022/09/20 03:02:53;;;;;;;4.00;2.92;;;;;;;10.46;81.97;99292.70;1821806;77;21571;-71
2022/09/20 03:05:43;;;;;;;4.70;3.50;;;;;;;10.54;81.87;99297.12;1793036;80;21061;-70
2022/09/20 03:08:40;;;;;;;6.45;3.25;;;;;;;10.68;81.78;99298.16;1821194;77;21962;-69
2022/09/20 03:11:43;;;;;;;3.83;3.35;;;;;;;10.63;81.68;99297.38;1806941;78;21041;-71
2022/09/20 03:14:22;;;;;;;5.30;3.27;;;;;;;10.60;81.80;99297.73;1808172;77;21130;-70
2022/09/20 03:17:17;;;;;;;5.55;3.27;;;;;;;10.64;81.87;99300.34;1817344;77;21000;-69
2022/09/20 03:19:58;;;;;;;7.08;2.92;;;;;;;10.63;81.79;99300.03;1815499;78;20993;-69
2022/09/20 03:22:59;;;;;;;5.65;3.50;;;;;;;10.74;81.69;99301.42;1781158;78;21073;-70
2022/09/20 03:25:35;;;;;;;4.28;3.35;;;;;;;10.82;81.53;99305.35;1789476;80;21082;-71
2022/09/20 03:28:35;;;;;;;6.00;3.67;;;;;;;10.80;81.53;99307.37;1814764;78;22359;-69
2022/09/20 03:31:30;;;;;;;4.58;3.67;;;;;;;10.80;81.55;99306.86;1815346;78;21001;-71
2022/09/20 03:34:28;;;;;;;4.65;3.50;;;;;;;10.80;81.42;99311.35;1783691;79;21511;-71
2022/09/20 03:37:21;;;;;;;4.87;2.85;;;;;;;10.73;81.42;99309.08;1817670;78;21075;-70
2022/09/20 03:40:27;;;;;;;4.37;3.35;;;;;;;10.78;81.36;99318.68;1783810;78;21050;-71
2022/09/20 03:42:53;;;;;;;4.85;3.50;;;;;;;10.81;81.22;99322.28;1789381;80;21127;-67
2022/09/20 03:45:41;;;;;;;7.47;3.90;;;;;;;10.77;81.27;99331.63;1817623;77;20987;-71
2022/09/20 03:48:22;;;;;;;5.50;3.62;;;;;;;10.73;81.48;99335.14;1819692;78;21065;-70
2022/09/20 03:51:09;;;;;;;9.63;3.72;;;;;;;10.70;81.51;99337.33;1781135;78;21028;-70
2022/09/20 03:53:57;;;;;;;5.03;3.40;;;;;;;10.66;81.46;99332.86;1780080;78;22006;-71
2022/09/20 03:56:43;;;;;;;4.95;3.40;;;;;;;10.70;81.29;99331.53;1818696;78;21107;-70
2022/09/20 03:59:27;;;;;;;6.62;3.40;;;;;;;10.77;81.22;99332.95;1813224;78;21006;-69
2022/09/20 04:02:37;;;;;;;5.33;3.52;;;;;;;10.77;81.36;99332.95;1775607;80;21089;-71
2022/09/20 04:05:15;;;;;;;5.70;3.45;;;;;;;10.73;81.60;99328.50;1779621;78;21041;-71
2022/09/20 04:08:12;;;;;;;4.75;3.50;;;;;;;10.70;81.53;99333.34;1803370;78;21002;-71
2022/09/20 04:10:58;;;;;;;6.03;3.12;;;;;;;10.62;81.71;99330.24;1784859;77;21517;-71
2022/09/20 04:13:48;;;;;;;4.65;3.00;;;;;;;10.70;81.82;99332.86;1803167;77;21017;-71
2022/09/20 04:16:33;;;;;;;4.20;3.30;;;;;;;10.80;81.78;99333.94;1817859;78;21092;-69
2022/09/20 04:19:31;;;;;;;6.37;3.35;;;;;;;10.76;81.84;99331.32;1814969;79;21541;-70
2022/09/20 04:21:59;;;;;;;4.60;3.62;;;;;;;10.68;81.96;99335.34;1814577;79;21013;-71
2022/09/20 04:24:53;;;;;;;5.25;3.17;;;;;;;10.62;82.30;99332.42;1806844;78;21133;-69
2022/09/20 04:27:28;;;;;;;4.30;3.62;;;;;;;10.69;82.33;99329.05;1791040;78;21978;-71
2022/09/20 04:30:20;;;;;;;5.35;3.60;;;;;;;10.75;82.12;99334.97;1812718;78;21032;-70
2022/09/20 04:33:04;;;;;;;4.42;3.33;;;;;;;10.71;82.49;99327.85;1790955;78;21529;-70
2022/09/20 04:38:42;;;;;;;5.10;3.15;;;;;;;10.67;83.09;99332.38;1793788;78;21133;-71
2022/09/20 04:41:40;;;;;;;7.15;4.10;;;;;;;10.77;82.94;99336.94;1816020;79;21025;-71
2022/09/20 04:44:38;;;;;;;4.83;3.67;;;;;;;10.88;82.69;99341.02;1817038;79;21029;-71
2022/09/20 04:47:52;;;;;;;9.40;4.80;;;;;;;10.89;82.58;99346.13;1801494;78;21049;-71
2022/09/20 04:50:42;;;;;;;10.23;5.23;;;;;;;10.91;82.33;99340.63;1816033;78;21037;-71
2022/09/20 04:53:49;;;;;;;6.95;5.03;;;;;;;10.86;81.97;99349.16;1813780;78;22079;-72
2022/09/20 04:56:35;;;;;;;7.72;6.42;;;;;;;10.94;81.71;99349.08;1806302;79;22704;-71
2022/09/20 04:59:30;;;;;;;8.70;6.53;;;;;;;11.09;81.38;99356.27;1793347;79;21069;-73
2022/09/20 05:02:11;;;;;;;8.10;6.17;;;;;;;11.09;81.20;99353.10;1737839;81;21045;-72
2022/09/20 05:05:19;;;;;;;7.65;5.92;;;;;;;11.11;81.10;99355.59;1803425;78;21056;-72
2022/09/20 05:08:40;;;;;;;6.17;3.98;;;;;;;11.12;81.11;99355.89;1810248;79;21192;-70
2022/09/20 05:11:50;;;;;;;5.58;4.10;;;;;;;11.26;80.91;99348.45;1815238;78;21076;-71
2022/09/20 05:15:11;;;;;;;6.65;4.10;;;;;;;11.35;80.62;99353.17;1808992;78;21083;-68
2022/09/20 05:17:52;;;;;;;5.85;4.65;;;;;;;11.30;80.69;99356.39;1820482;77;21049;-71
2022/09/20 05:20:50;;;;;;;6.45;5.00;;;;;;;11.29;80.49;99353.91;1816686;77;21049;-71
2022/09/20 05:23:48;;;;;;;5.80;4.00;;;;;;;11.30;80.39;99352.87;1815832;78;21378;-71
2022/09/20 05:26:55;;;;;;;6.85;4.05;;;;;;;11.39;80.20;99351.28;1811456;78;21521;-70
2022/09/20 05:30:15;;;;;;;6.35;4.80;;;;;;;11.55;79.95;99344.98;1848716;75;28097;-71
2022/09/20 05:32:57;;;;;;;8.73;5.45;;;;;;;11.52;79.91;99341.34;1818477;77;21005;-72
2022/09/20 05:35:46;;;;;;;6.47;5.25;;;;;;;11.55;79.85;99346.78;1821998;77;21122;-71
2022/09/20 05:38:24;;;;;;;5.83;4.78;;;;;;;11.55;79.70;99342.31;1819488;78;21060;-70
2022/09/20 05:41:13;;;;;;;5.65;4.55;;;;;;;11.56;79.55;99340.47;1819062;77;21026;-70
2022/09/20 05:44:03;;;;;;;11.43;5.58;;;;;;;11.66;79.37;99340.19;1774273;78;21017;-71
2022/09/20 05:47:04;;;;;;;6.35;4.55;;;;;;;11.75;79.14;99345.22;1811147;77;21514;-70
2022/09/20 05:49:42;;;;;;;7.15;5.40;;;;;;;11.75;79.37;99345.73;1818508;77;21128;-72
2022/09/20 05:52:32;;;;;;;6.92;5.25;;;;;;;11.76;79.38;99344.23;1819211;77;21520;-70
2022/09/20 05:55:07;;;;;;;8.00;5.00;;;;;;;11.78;79.30;99342.69;1818388;77;21072;-71
2022/09/20 05:58:02;;;;;;;6.37;4.80;;;;;;;11.86;79.18;99338.61;1819705;77;21482;-70
2022/09/20 06:00:44;;;;;;;7.42;4.72;;;;;;;11.95;79.06;99336.69;1806018;77;21126;-74
2022/09/20 06:03:35;;;;;;;6.97;5.28;;;;;;;11.94;79.17;99337.72;1818920;77;21129;-72
2022/09/20 06:06:13;;;;;;;7.05;5.00;;;;;;;11.91;79.25;99332.75;1803686;77;21092;-74
2022/09/20 06:09:06;;;;;;;8.10;5.37;;;;;;;11.91;79.31;99340.22;1823425;77;21056;-72
2022/09/20 06:12:21;;;;;;;6.58;4.22;;;;;;;11.93;79.39;99349.36;1770090;79;27046;-72
2022/09/20 06:15:18;;;;;;;7.35;5.12;;;;;;;12.05;79.29;99348.37;1767089;79;21033;-71
2022/09/20 06:18:19;;;;;;;5.87;4.78;;;;;;;12.18;79.25;99341.86;1769079;79;21264;-72
2022/09/20 06:21:08;;;;;;;7.58;5.40;;;;;;;12.22;79.28;99332.48;1769419;79;21084;-72
2022/09/20 06:23:35;;;;;;;7.35;5.45;;;;;;;12.26;79.26;99336.92;1755187;79;21322;-73
2022/09/20 06:26:06;;;;;;;8.15;4.85;;;;;;;12.26;79.03;99337.74;1766421;79;21053;-72
2022/09/20 06:28:40;;;;;;;7.37;5.28;;;;;;;12.34;78.87;99344.30;1766376;79;21084;-71
2022/09/20 06:31:07;;;;;;;8.15;5.72;;;;;;;12.48;78.57;99342.59;1762338;79;21505;-72
2022/09/20 06:33:52;;;;;;;9.10;4.85;;;;;;;12.50;78.45;99343.74;1773165;79;21088;-72
2022/09/20 06:42:18;;;;;;;5.28;3.90;;;;;;;12.43;78.24;99341.00;1772599;79;21386;-72
2022/09/20 06:44:46;;;;;;;6.75;4.62;;;;;;;12.51;77.90;99338.20;1761241;79;21136;-72
2022/09/20 06:47:13;;;;;;;5.90;4.83;;;;;;;12.57;77.79;99341.94;1761498;80;21057;-73
2022/09/20 06:49:43;;;;;;;7.92;5.25;;;;;;;12.56;77.86;99339.80;1761436;79;21522;-72
2022/09/20 06:52:17;;;;;;;5.78;4.67;;;;;;;12.56;77.85;99336.31;1774547;79;21096;-74
2022/09/20 06:54:45;;;;;;;6.22;4.42;;;;;;;12.55;77.77;99343.46;1774850;79;21073;-73
2022/09/20 06:57:15;;;;;;;5.20;4.05;;;;;;;12.51;77.71;99334.20;1775546;79;21061;-73
2022/09/20 06:59:42;;;;;;;4.70;3.98;;;;;;;12.50;77.82;99343.23;1769669;79;21538;-74
2022/09/20 07:02:09;;;;;;;5.22;3.90;;;;;;;12.58;77.57;99340.42;1774590;79;21100;-73
2022/09/20 07:04:36;;;;;;;5.45;3.98;;;;;;;12.70;77.35;99334.07;1765458;79;20982;-79
2022/09/20 07:07:04;;;;;;;4.05;3.70;;;;;;;12.71;77.12;99333.07;1778223;79;21057;-74
2022/09/20 07:09:30;;;;;;;6.00;4.10;;;;;;;12.73;76.99;99333.70;1773180;79;21214;-73
2022/09/20 07:12:01;;;;;;;4.62;4.12;;;;;;;12.76;76.86;99335.14;1779180;79;21140;-75
2022/09/20 07:14:27;;;;;;;4.53;3.65;;;;;;;12.80;76.57;99336.41;1763414;80;21591;-74
2022/09/20 07:16:53;;;;;;;4.80;3.72;;;;;;;12.87;76.49;99331.96;1779123;79;21066;-76
2022/09/20 07:19:22;;;;;;;6.58;4.08;;;;;;;12.94;76.27;99334.67;1769325;79;21018;-74
2022/09/20 07:21:49;;;;;;;9.03;4.97;;;;;;;13.06;75.99;99329.14;1773777;79;21149;-74
2022/09/20 07:24:15;;;;;;;5.17;4.50;;;;;;;13.22;75.69;99327.19;1769971;79;21079;-78
2022/09/20 07:27:01;;;;;;;5.33;4.20;;;;;;;13.24;75.54;99325.16;1776297;79;21053;-73
2022/09/20 07:29:28;;;;;;;6.53;5.05;;;;;;;13.25;75.52;99324.12;1776251;79;21022;-74
2022/09/20 07:31:55;;;;;;;4.87;4.47;;;;;;;13.22;75.33;99322.67;1777012;79;21552;-75
2022/09/20 07:34:22;;;;;;;6.85;4.70;;;;;;;13.15;75.25;99318.64;1778736;79;22384;-74
2022/09/20 07:36:50;;;;;;;5.50;4.62;;;;;;;13.08;75.33;99323.62;1775539;79;21037;-74
2022/09/20 07:39:16;;;;;;;6.03;3.70;;;;;;;13.02;75.61;99315.88;1777112;79;21041;-72
2022/09/20 07:41:47;;;;;;;4.35;3.85;;;;;;;13.08;75.53;99324.43;1767302;79;21044;-73
2022/09/20 07:44:20;;;;;;;6.33;4.83;;;;;;;13.17;75.62;99329.94;1768132;79;21068;-75
2022/09/20 07:46:49;;;;;;;5.15;3.77;;;;;;;13.15;75.85;99332.47;1773889;79;21086;-75
2022/09/20 07:49:16;;;;;;;5.00;4.28;;;;;;;13.11;76.07;99338.69;1774576;80;21104;-71
2022/09/20 07:51:42;;;;;;;6.65;4.80;;;;;;;13.07;76.17;99336.10;1768785;79;21490;-71
2022/09/20 07:54:08;;;;;;;8.70;4.92;;;;;;;13.04;76.21;99339.17;1771079;79;21407;-74
2022/09/20 07:56:36;;;;;;;5.67;4.28;;;;;;;13.03;76.13;99339.36;1772737;79;21103;-74
2022/09/20 07:59:03;;;;;;;6.70;4.12;;;;;;;13.06;76.59;99341.14;1765423;79;21124;-74
2022/09/20 08:01:31;;;;;;;4.60;4.12;;;;;;;13.17;76.63;99333.94;1777173;79;21041;-72
2022/09/20 08:03:57;;;;;;;6.37;4.35;;;;;;;13.17;76.85;99338.42;1781311;79;21247;-73
2022/09/20 08:06:24;;;;;;;4.78;4.05;;;;;;;13.20;76.91;99345.23;1768708;79;21049;-72
2022/09/20 08:08:50;;;;;;;4.95;4.47;;;;;;;13.20;76.90;99342.56;1772345;79;21585;-74
2022/09/20 08:11:24;;;;;;;5.15;4.62;;;;;;;13.21;77.31;99345.53;1761421;80;21603;-73
2022/09/20 08:13:51;;;;;;;7.75;4.53;;;;;;;13.24;77.29;99350.48;1774941;79;21045;-73
2022/09/20 08:16:18;;;;;;;7.33;4.50;;;;;;;13.33;77.39;99346.17;1774182;79;21064;-73
2022/09/20 08:18:50;;;;;;;5.87;4.62;;;;;;;13.48;76.85;99342.06;1773478;79;21602;-73
2022/09/20 08:21:17;;;;;;;8.50;5.10;;;;;;;13.49;76.64;99338.36;1763036;79;21076;-73
2022/09/20 08:23:49;;;;;;;7.00;5.10;;;;;;;13.49;76.65;99333.02;1772086;79;21216;-74
2022/09/20 08:26:18;;;;;;;6.12;4.62;;;;;;;13.53;76.47;99333.45;1770661;79;21026;-73
2022/09/20 08:28:45;;;;;;;7.45;6.72;;;;;;;13.58;76.34;99331.03;1772720;79;21525;-74
2022/09/20 08:31:14;;;;;;;5.05;3.92;;;;;;;13.63;76.26;99334.42;1755434;79;21080;-73
2022/09/20 08:33:41;;;;;;;6.80;3.95;;;;;;;13.72;75.87;99333.25;1776290;79;21072;-73
2022/09/20 08:36:15;;;;;;;4.70;4.30;;;;;;;13.85;75.20;99337.80;1772055;79;21235;-74
2022/09/20 08:38:41;;;;;;;6.12;4.85;;;;;;;13.82;74.86;99340.37;1769846;79;20997;-75
2022/09/20 08:41:26;;;;;;;6.78;5.47;;;;;;;13.77;75.01;99340.13;1762664;79;21828;-74
2022/09/20 08:44:00;;;;;;;7.55;5.35;;;;;;;13.74;74.96;99334.69;1737840;79;21522;-75
2022/09/20 08:46:34;;;;;;;6.08;4.67;;;;;;;13.70;74.94;99347.30;1777953;80;22032;-75
2022/09/20 08:49:04;;;;;;;6.47;4.65;;;;;;;13.60;74.92;99342.33;1732596;80;21769;-75
2022/09/20 08:51:34;;;;;;;6.00;3.95;;;;;;;13.46;74.93;99338.77;1768946;79;21021;-73
2022/09/20 08:54:03;;;;;;;6.47;3.50;;;;;;;13.49;75.03;99339.69;1767612;79;21110;-77
2022/09/20 08:56:35;;;;;;;6.20;4.10;;;;;;;13.54;75.09;99338.60;1774568;79;21080;-76
2022/09/20 08:59:06;;;;;;;4.60;3.67;;;;;;;13.47;75.27;99337.73;1705351;79;21069;-73
2022/09/20 09:01:33;;;;;;;5.67;4.03;;;;;;;13.44;75.47;99338.11;1775141;79;21128;-73
2022/09/20 09:04:22;;;;;;;6.05;4.33;;;;;;;13.43;75.74;99332.48;1767053;79;20994;-74
2022/09/20 09:06:51;;;;;;;7.40;5.53;;;;;;;13.43;75.94;99329.81;1777340;79;21073;-75
2022/09/20 09:09:26;;;;;;;4.95;3.98;;;;;;;13.45;76.09;99334.44;1775951;80;20991;-73
2022/09/20 09:11:54;;;;;;;6.08;4.33;;;;;;;13.54;76.32;99336.42;1773460;79;21533;-75
2022/09/20 09:14:49;;;;;;;6.85;4.62;;;;;;;13.71;76.76;99330.25;1765568;79;22180;-74
2022/09/20 09:17:26;;;;;;;7.60;5.10;;;;;;;13.74;77.19;99333.87;1762278;79;21013;-73
2022/09/20 09:19:56;;;;;;;5.37;4.60;;;;;;;13.73;77.72;99330.38;1766712;79;21088;-74
2022/09/20 09:22:35;;;;;;;7.15;4.83;;;;;;;13.71;78.17;99327.58;1761802;80;21125;-73
2022/09/20 09:25:15;;;;;;;6.95;4.58;;;;;;;13.69;78.76;99326.95;1761170;79;21006;-74
2022/09/20 09:27:56;;;;;;;6.72;4.83;;;;;;;13.78;79.11;99331.63;1768337;80;21233;-73
2022/09/20 09:30:39;;;;;;;8.40;6.28;;;;;;;13.91;79.12;99329.02;1764049;79;21045;-74
2022/09/20 09:33:26;;;;;;;7.67;4.90;;;;;;;13.95;79.21;99326.25;1771173;79;21034;-78
2022/09/20 09:36:05;;;;;;;7.75;5.50;;;;;;;13.95;79.48;99331.08;1762862;79;21030;-73
2022/09/20 09:38:35;;;;;;;5.37;4.83;;;;;;;13.96;79.82;99326.06;1764842;79;21010;-74
2022/09/20 09:41:23;;;;;;;6.00;5.40;;;;;;;13.99;79.77;99330.69;1769846;79;21214;-74
2022/09/20 09:43:58;;;;;;;6.60;5.20;;;;;;;14.06;79.34;99334.19;1764219;80;21517;-73
2022/09/20 09:46:25;;;;;;;6.67;5.50;;;;;;;14.02;79.44;99328.94;1745079;79;21066;-75
2022/09/20 09:49:15;;;;;;;8.95;6.00;;;;;;;13.94;79.96;99329.94;1766600;80;21061;-73
2022/09/20 09:52:04;;;;;;;6.75;5.78;;;;;;;13.90;80.47;99325.50;1769339;79;20971;-73
2022/09/20 09:54:46;;;;;;;6.60;5.15;;;;;;;13.87;80.59;99322.41;1762328;79;21324;-73
2022/09/20 09:57:39;;;;;;;10.45;5.45;;;;;;;13.92;80.64;99322.64;1761164;79;21636;-74
2022/09/20 10:00:20;;;;;;;7.85;5.55;;;;;;;13.95;80.96;99317.72;1764919;79;21093;-75
2022/09/20 10:03:29;;;;;;;6.97;5.87;;;;;;;13.92;81.53;99311.44;1745036;79;21081;-74
2022/09/20 10:06:25;;;;;;;7.60;5.97;;;;;;;13.88;81.90;99319.53;1769928;80;21050;-76
2022/09/20 10:09:06;;;;;;;6.53;4.92;;;;;;;13.86;82.38;99312.23;1767686;79;21188;-75
2022/09/20 10:11:57;;;;;;;7.62;6.47;;;;;;;14.06;82.33;99306.14;1775003;80;21062;-77
2022/09/20 10:14:45;;;;;;;9.15;5.95;;;;;;;14.13;81.87;99305.66;1777736;79;21567;-74
2022/09/20 10:17:42;;;;;;;11.43;6.50;;;;;;;14.09;81.76;99307.08;1775304;79;21065;-75
2022/09/20 10:20:27;;;;;;;8.20;6.47;;;;;;;14.06;81.11;99302.13;1771784;79;21035;-77
2022/09/20 10:23:00;;;;;;;7.47;5.35;;;;;;;14.05;81.32;99298.64;1770984;79;21263;-75
2022/09/20 10:25:48;;;;;;;8.38;5.95;;;;;;;14.12;81.25;99296.82;1762024;79;21077;-77
2022/09/20 10:28:53;;;;;;;7.62;6.30;;;;;;;14.25;80.95;99300.53;1770526;79;21068;-74
2022/09/20 10:31:38;;;;;;;10.53;6.40;;;;;;;14.24;80.88;99298.39;1767509;79;21053;-74
2022/09/20 10:34:41;;;;;;;8.00;6.22;;;;;;;14.20;80.68;99298.97;1766128;79;21072;-73
2022/09/20 10:37:26;;;;;;;13.98;6.30;;;;;;;14.07;80.26;99298.45;1776200;79;21088;-75
2022/09/20 10:40:09;;;;;;;12.95;5.22;;;;;;;13.93;80.42;99295.73;1776017;79;21576;-80
2022/09/20 10:45:48;;;;;;;9.63;3.50;;;;;;;13.86;78.20;99296.22;1780911;79;20986;-75
2022/09/20 10:48:32;;;;;;;14.55;4.45;;;;;;;13.67;78.06;99289.78;1694183;83;21683;-74
2022/09/20 10:51:09;;;;;;;9.60;4.55;;;;;;;13.50;78.25;99289.32;1773685;79;21130;-77
2022/09/20 10:53:54;;;;;;;5.90;3.60;;;;;;;13.36;78.62;99284.41;1733227;80;21037;-76
2022/09/20 10:56:42;;;;;;;7.87;2.65;;;;;;;13.25;78.93;99284.10;1694355;82;21049;-76
2022/09/20 10:59:26;;;;;;;9.30;3.50;;;;;;;13.25;79.04;99279.61;1732620;80;21018;-74
2022/09/20 11:02:32;;;;;;;6.70;3.42;;;;;;;13.28;79.37;99277.05;1733865;80;21005;-82
2022/09/20 11:05:29;;;;;;;4.58;3.35;;;;;;;13.21;79.81;99276.19;1774689;79;21363;-79
2022/09/20 11:08:17;;;;;;;4.62;3.45;;;;;;;13.07;80.02;99272.62;1775188;80;20990;-84
2022/09/20 11:11:07;;;;;;;6.20;2.87;;;;;;;12.96;80.60;99273.48;1777364;80;21002;-81
2022/09/20 11:13:48;;;;;;;4.50;2.25;;;;;;;13.00;81.00;99265.92;1770588;80;21067;-82
2022/09/20 11:16:38;;;;;;;2.85;2.47;;;;;;;13.03;81.13;99262.84;1771950;79;21041;-76
2022/09/20 11:19:30;;;;;;;4.42;3.22;;;;;;;12.96;81.25;99267.30;1776551;79;21951;-76
2022/09/20 11:22:10;;;;;;;2.98;2.50;;;;;;;12.87;81.42;99264.50;1772266;79;21174;-77
2022/09/20 11:25:06;;;;;;;3.25;2.42;;;;;;;12.78;82.02;99255.30;1763166;79;21474;-75
2022/09/20 11:27:46;;;;;;;4.03;3.10;;;;;;;12.84;82.29;99254.22;1758367;79;21560;-74
2022/09/20 11:30:19;;;;;;;2.87;2.35;;;;;;;12.93;82.68;99254.39;1766440;79;22357;-74
2022/09/20 11:33:02;;;;;;;3.75;2.17;;;;;;;12.89;83.00;99258.47;1773947;79;21095;-74
2022/09/20 11:35:37;;;;;;;;;;;;;;;12.83;83.02;99265.91;1773092;79;21058;-71
2022/09/20 11:38:49;;;;;;;3.17;2.87;;;;;;;12.72;83.48;99260.59;1771790;79;20173;-73
2022/09/20 11:41:29;;;;;;;2.55;2.35;;;;;;;12.67;83.90;99267.84;1768101;80;21050;-75
2022/09/20 11:44:08;;;;;;;3.27;2.60;;;;;;;12.79;83.98;99268.95;1764666;79;21049;-74
2022/09/20 11:46:52;;;;;;;6.03;2.95;;;;;;;12.78;84.04;99269.14;1772449;79;21284;-75
2022/09/20 11:49:23;;;;;;;;;;;;;;;12.70;84.02;99272.77;1747876;80;21594;-75
2022/09/20 11:52:38;;;;;;;4.25;3.52;;;;;;;12.61;83.96;99268.59;1772167;79;20163;-73
2022/09/20 11:55:10;;;;;;;3.35;2.95;;;;;;;12.52;84.45;99265.77;1751881;80;21048;-82
2022/09/20 11:57:37;;;;;;;5.58;3.30;;;;;;;12.54;84.67;99263.23;1765789;79;21135;-74
2022/09/20 12:00:04;;;;;;;5.20;3.35;;;;;;;12.57;84.90;99262.85;1766613;79;21072;-72
2022/09/20 12:02:38;;;;;;;4.75;3.02;;;;;;;12.56;85.26;99255.86;1764060;79;21072;-73
2022/09/20 12:05:06;;;;;;;3.85;2.72;;;;;;;12.56;85.55;99257.71;1762310;79;21026;-76
2022/09/20 12:07:38;;;;;;;4.80;3.20;;;;;;;12.62;85.77;99260.11;1774085;79;21037;-77
2022/09/20 12:10:22;;;;;;;3.10;2.80;;;;;;;12.73;85.46;99257.73;1771692;80;21106;-75
2022/09/20 12:12:53;;;;;;;3.83;3.17;;;;;;;12.74;85.61;99261.22;1771261;80;21302;-73
2022/09/20 12:15:27;;;;;;;6.60;4.15;;;;;;;12.69;85.58;99250.30;1739633;79;21288;-72
2022/09/20 12:18:02;;;;;;;6.55;3.40;;;;;;;12.64;85.71;99253.56;1768073;79;20954;-82
2022/09/20 12:20:38;;;;;;;4.45;3.27;;;;;;;12.67;85.66;99251.02;1761750;79;21058;-73
2022/09/20 12:23:43;;;;;;;5.25;3.50;;;;;;;12.70;85.53;99249.30;1764778;79;22134;-72
2022/09/20 12:26:21;;;;;;;4.05;3.33;;;;;;;12.59;85.57;99247.50;1769060;79;21133;-79
2022/09/20 12:28:58;;;;;;;5.60;4.08;;;;;;;12.47;86.10;99256.19;1766896;79;22491;-78
2022/09/20 12:31:37;;;;;;;4.62;3.33;;;;;;;12.39;86.14;99255.82;1697305;82;21081;-80
2022/09/20 12:34:12;;;;;;;4.72;3.33;;;;;;;12.44;86.32;99260.56;1712489;82;21143;-79
2022/09/20 12:36:58;;;;;;;5.35;3.27;;;;;;;12.52;86.10;99255.12;1693447;83;21561;-79
2022/09/20 12:39:28;;;;;;;5.33;3.72;;;;;;;12.48;86.31;99258.67;1701247;82;21309;-80
2022/09/20 12:41:59;;;;;;;4.70;3.55;;;;;;;12.45;86.32;99255.05;1702835;82;21045;-79
2022/09/20 12:44:38;;;;;;;3.92;3.42;;;;;;;12.44;86.54;99248.09;1706324;84;21130;-80
2022/09/20 12:47:21;;;;;;;4.70;3.17;;;;;;;12.57;86.65;99242.87;1761245;79;21026;-80
2022/09/20 12:53:05;;;;;;;4.22;3.52;;;;;;;12.83;86.65;99241.41;1771428;79;21212;-78
2022/09/20 12:55:39;;;;;;;4.37;3.42;;;;;;;12.85;86.77;99247.88;1756469;79;21076;-78